createdAt,value
2018-04-10T00:01:35.987Z,54.20
2018-04-10T00:06:37.317Z,54.72
2018-04-10T00:11:38.626Z,54.29
2018-04-10T00:16:39.949Z,53.67
2018-04-10T00:21:41.273Z,53.47
2018-04-10T00:26:42.617Z,53.84
2018-04-10T00:31:43.977Z,54.29
2018-04-10T00:36:45.274Z,54.44
2018-04-10T00:41:46.570Z,54.88
2018-04-10T00:46:47.873Z,54.88
2018-04-10T00:51:49.910Z,54.69
2018-04-10T00:56:51.222Z,54.88
2018-04-10T01:01:52.538Z,55.40
2018-04-10T01:06:53.832Z,55.51
2018-04-10T01:11:55.533Z,55.89
2018-04-10T01:16:56.821Z,56.01
2018-04-10T01:21:58.866Z,56.29
2018-04-10T01:27:00.156Z,56.26
2018-04-10T01:32:01.477Z,55.91
2018-04-10T01:37:02.778Z,56.41
2018-04-10T01:42:04.101Z,56.21
2018-04-10T01:47:06.149Z,55.87
2018-04-10T01:52:07.474Z,55.83
2018-04-10T01:57:08.769Z,55.47
2018-04-10T02:02:10.099Z,55.13
2018-04-10T02:07:11.400Z,54.96
2018-04-10T02:12:12.755Z,55.30
2018-04-10T02:17:14.029Z,55.51
2018-04-10T02:22:16.127Z,55.96
2018-04-10T02:27:17.399Z,56.16
2018-04-10T02:32:18.694Z,56.28
2018-04-10T02:37:19.986Z,56.39
2018-04-10T02:42:21.318Z,56.76
2018-04-10T02:47:22.633Z,57.16
2018-04-10T02:52:23.958Z,57.32
2018-04-10T02:57:25.301Z,57.43
2018-04-10T03:02:26.605Z,57.15
2018-04-10T03:07:27.925Z,57.81
2018-04-10T03:12:29.227Z,58.75
2018-04-10T03:17:31.265Z,58.87
2018-04-10T03:22:32.571Z,58.74
2018-04-10T03:27:33.893Z,58.98
2018-04-10T03:32:35.204Z,59.16
2018-04-10T03:37:37.267Z,59.54
2018-04-10T03:42:38.575Z,59.95
2018-04-10T03:47:39.906Z,59.74
2018-04-10T03:52:41.193Z,60.06
2018-04-10T03:57:42.490Z,60.23
2018-04-10T04:02:43.797Z,60.10
2018-04-10T04:07:45.105Z,60.31
2018-04-10T04:12:46.412Z,60.27
2018-04-10T04:17:47.726Z,60.21
2018-04-10T04:22:49.841Z,60.43
2018-04-10T04:27:51.167Z,61.68
2018-04-10T04:32:52.473Z,61.55
2018-04-10T04:37:53.787Z,61.58
2018-04-10T04:42:56.004Z,61.31
2018-04-10T04:47:58.130Z,61.40
2018-04-10T04:52:59.526Z,61.44
2018-04-10T04:58:00.822Z,61.64
2018-04-10T05:03:02.128Z,60.73
2018-04-10T05:08:03.450Z,60.45
2018-04-10T05:13:04.787Z,60.26
2018-04-10T05:18:06.085Z,60.39
2018-04-10T05:23:07.386Z,61.24
2018-04-10T05:28:08.702Z,61.68
2018-04-10T05:33:10.046Z,61.72
2018-04-10T05:38:11.361Z,60.37
2018-04-10T05:43:12.668Z,59.53
2018-04-10T05:48:13.998Z,58.49
2018-04-10T05:53:16.047Z,58.04
2018-04-10T05:58:17.356Z,57.75
2018-04-10T06:03:18.695Z,58.07
2018-04-10T06:08:20.014Z,57.79
2018-04-10T06:13:21.348Z,57.70
2018-04-10T06:18:22.645Z,57.82
2018-04-10T06:23:24.694Z,57.68
2018-04-10T06:28:25.998Z,57.20
2018-04-10T06:33:27.306Z,56.73
2018-04-10T06:38:28.619Z,55.27
2018-04-10T06:43:30.661Z,53.54
2018-04-10T06:48:31.989Z,52.38
2018-04-10T06:53:33.306Z,52.52
2018-04-10T06:58:34.672Z,52.04
2018-04-10T07:03:35.981Z,51.21
2018-04-10T07:08:38.005Z,52.50
2018-04-10T07:13:39.321Z,52.07
2018-04-10T07:18:40.644Z,51.45
2018-04-10T07:23:41.950Z,51.83
2018-04-10T07:28:44.001Z,50.68
2018-04-10T07:33:45.319Z,51.60
2018-04-10T07:38:46.643Z,50.84
2018-04-10T07:43:48.719Z,49.67
2018-04-10T07:48:50.062Z,49.69
2018-04-10T07:53:51.379Z,49.56
2018-04-10T07:58:52.694Z,49.78
2018-04-10T08:03:53.986Z,49.15
2018-04-10T08:08:55.285Z,48.54
2018-04-10T08:13:56.585Z,48.20
2018-04-10T08:18:57.904Z,48.00
2018-04-10T08:23:59.197Z,47.21
2018-04-10T08:29:00.498Z,46.50
2018-04-10T08:34:01.815Z,46.98
2018-04-10T08:39:03.169Z,46.07
2018-04-10T08:44:04.477Z,46.27
2018-04-10T08:49:05.790Z,46.50
2018-04-10T08:54:07.821Z,45.52
2018-04-10T08:59:09.142Z,45.14
2018-04-10T09:04:10.458Z,44.74
2018-04-10T09:09:11.774Z,45.65
2018-04-10T09:14:13.842Z,46.45
2018-04-10T09:19:15.134Z,47.08
2018-04-10T09:24:16.446Z,46.36
2018-04-10T09:29:18.490Z,46.05
2018-04-10T09:34:26.738Z,45.50
2018-04-10T09:39:28.053Z,45.05
2018-04-10T09:44:29.354Z,44.59
2018-04-10T09:49:30.678Z,43.07
2018-04-10T09:54:32.705Z,44.15
2018-04-10T09:59:34.026Z,43.53
2018-04-10T10:04:35.345Z,43.08
2018-04-10T10:09:36.669Z,42.63
2018-04-10T10:14:38.006Z,42.92
2018-04-10T10:19:39.352Z,43.29
2018-04-10T10:24:40.663Z,42.65
2018-04-10T10:29:42.000Z,41.94
2018-04-10T10:39:52.181Z,42.17
2018-04-10T10:44:53.490Z,42.74
2018-04-10T10:49:54.829Z,43.58
2018-04-10T10:54:56.126Z,42.47
2018-04-10T10:59:58.198Z,42.29
2018-04-10T11:04:59.515Z,41.59
2018-04-10T11:10:00.862Z,42.40
2018-04-10T11:15:02.230Z,41.82
2018-04-10T11:20:03.596Z,40.65
2018-04-10T11:25:05.690Z,40.77
2018-04-10T11:30:07.069Z,39.95
2018-04-10T11:35:08.382Z,40.93
2018-04-10T11:40:10.446Z,39.92
2018-04-10T11:45:11.787Z,41.04
2018-04-10T11:50:13.860Z,39.80
2018-04-10T11:55:15.205Z,39.48
2018-04-10T12:00:16.554Z,38.89
2018-04-10T12:05:17.853Z,39.11
2018-04-10T12:10:19.939Z,39.85
2018-04-10T12:15:21.275Z,40.10
2018-04-10T12:20:22.595Z,39.65
2018-04-10T12:25:23.902Z,39.14
2018-04-10T12:30:25.217Z,39.68
2018-04-10T12:35:27.266Z,38.18
2018-04-10T12:40:28.602Z,39.55
2018-04-10T12:45:29.899Z,39.61
2018-04-10T12:50:31.972Z,38.72
2018-04-10T12:55:33.315Z,39.05
2018-04-10T13:00:34.615Z,38.11
2018-04-10T13:05:36.005Z,37.81
2018-04-10T13:10:37.353Z,37.24
2018-04-10T13:15:38.679Z,37.52
2018-04-10T13:20:39.992Z,37.60
2018-04-10T13:25:41.315Z,37.62
2018-04-10T13:30:42.637Z,36.87
2018-04-10T13:35:44.686Z,37.41
2018-04-10T13:40:46.010Z,37.03
2018-04-10T13:45:47.330Z,36.58
2018-04-10T13:50:48.715Z,36.44
2018-04-10T13:55:50.056Z,36.72
2018-04-10T14:00:51.379Z,35.97
2018-04-10T14:05:53.462Z,36.26
2018-04-10T14:10:54.791Z,36.80
2018-04-10T14:15:56.138Z,36.91
2018-04-10T14:20:57.481Z,36.24
2018-04-10T14:25:58.799Z,36.63
2018-04-10T14:31:00.150Z,36.90
2018-04-10T14:36:02.253Z,37.01
2018-04-10T14:41:03.601Z,36.98
2018-04-10T14:46:04.962Z,36.46
2018-04-10T14:51:06.282Z,36.78
2018-04-10T14:56:07.606Z,36.88
2018-04-10T15:01:09.645Z,36.48
2018-04-10T15:06:10.970Z,35.86
2018-04-10T15:11:12.278Z,35.85
2018-04-10T15:16:13.613Z,36.44
2018-04-10T15:21:14.934Z,36.72
2018-04-10T15:26:16.259Z,36.83
2018-04-10T15:31:18.318Z,37.53
2018-04-10T15:36:19.621Z,37.39
2018-04-10T15:41:20.953Z,37.38
2018-04-10T15:46:22.353Z,36.60
2018-04-10T15:51:23.694Z,35.95
2018-04-10T15:56:25.033Z,36.22
2018-04-10T16:01:27.170Z,35.71
2018-04-10T16:06:28.487Z,36.02
2018-04-10T16:11:29.803Z,35.82
2018-04-10T16:16:31.877Z,37.08
2018-04-10T16:21:33.304Z,38.09
2018-04-10T16:26:35.366Z,38.10
2018-04-10T16:31:36.677Z,38.51
2018-04-10T16:36:37.990Z,38.34
2018-04-10T16:41:40.070Z,38.37
2018-04-10T16:46:41.378Z,38.45
2018-04-10T16:51:43.466Z,38.64
2018-04-10T16:56:44.769Z,39.26
2018-04-10T17:01:46.814Z,39.27
2018-04-10T17:06:48.162Z,39.08
2018-04-10T17:11:49.473Z,39.53
2018-04-10T17:16:50.838Z,39.95
2018-04-10T17:21:52.190Z,40.36
2018-04-10T17:26:53.538Z,40.46
2018-04-10T17:31:54.876Z,40.31
2018-04-10T17:36:56.190Z,39.94
2018-04-10T17:41:57.552Z,39.63
2018-04-10T17:46:58.915Z,39.59
2018-04-10T17:52:01.078Z,39.55
2018-04-10T17:57:02.714Z,39.83
2018-04-10T18:02:04.103Z,39.98
2018-04-10T18:07:05.470Z,41.29
2018-04-10T18:12:07.582Z,42.59
2018-04-10T18:17:09.668Z,43.38
2018-04-10T18:22:11.545Z,44.00
2018-04-10T18:27:12.958Z,45.68
2018-04-10T18:32:14.442Z,47.27
2018-04-10T18:37:15.789Z,47.41
2018-04-10T18:42:17.227Z,47.92
2018-04-10T18:47:18.575Z,48.25
2018-04-10T18:52:19.967Z,48.30
2018-04-10T18:57:21.298Z,48.73
2018-04-10T19:02:23.469Z,48.73
2018-04-10T19:07:24.847Z,49.36
2018-04-10T19:12:26.197Z,49.52
2018-04-10T19:17:27.503Z,50.12
2018-04-10T19:22:30.523Z,49.99
2018-04-10T19:27:31.869Z,50.40
2018-04-10T19:32:33.203Z,51.05
2018-04-10T19:37:35.252Z,51.47
2018-04-10T19:42:36.565Z,51.51
2018-04-10T19:47:37.902Z,51.85
2018-04-10T19:52:39.982Z,51.63
2018-04-10T19:57:41.314Z,52.24
2018-04-10T20:02:42.646Z,52.85
2018-04-10T20:07:43.978Z,53.09
2018-04-10T20:12:46.062Z,53.56
2018-04-10T20:17:47.419Z,53.36
2018-04-10T20:22:48.756Z,53.59
2018-04-10T20:27:50.868Z,54.25
2018-04-10T20:32:52.913Z,54.20
2018-04-10T20:37:54.222Z,54.66
2018-04-10T20:42:55.539Z,54.80
2018-04-10T20:47:56.866Z,55.29
2018-04-10T20:52:58.203Z,56.00
2018-04-10T20:57:59.518Z,56.34
2018-04-10T21:03:01.767Z,57.23
2018-04-10T21:08:03.278Z,57.90
2018-04-10T21:13:04.594Z,57.78
2018-04-10T21:18:05.922Z,57.60
2018-04-10T21:23:07.216Z,58.40
2018-04-10T21:28:08.535Z,58.47
2018-04-10T21:33:09.841Z,58.49
2018-04-10T21:38:11.152Z,58.41
2018-04-10T21:43:19.381Z,58.55
2018-04-10T21:48:20.713Z,58.88
2018-04-10T21:53:22.017Z,59.26
2018-04-10T21:58:23.334Z,59.62
2018-04-10T22:03:24.661Z,60.19
2018-04-10T22:08:26.721Z,60.01
2018-04-10T22:13:28.024Z,60.29
2018-04-10T22:18:29.330Z,60.61
2018-04-10T22:23:30.642Z,60.60
2018-04-10T22:28:32.677Z,61.01
2018-04-10T22:33:33.954Z,61.56
2018-04-10T22:38:35.280Z,61.88
2018-04-10T22:43:36.592Z,62.29
2018-04-10T22:48:37.941Z,62.33
2018-04-10T22:53:39.257Z,62.74
2018-04-10T22:58:41.322Z,62.90
2018-04-10T23:03:42.692Z,63.30
2018-04-10T23:08:44.026Z,63.48
2018-04-10T23:13:45.342Z,63.53
2018-04-10T23:18:46.671Z,63.48
2018-04-10T23:23:47.971Z,63.58
2018-04-10T23:28:49.303Z,64.23
2018-04-10T23:33:50.648Z,64.53
2018-04-10T23:38:51.942Z,64.64
2018-04-10T23:43:53.275Z,64.76
2018-04-10T23:48:54.614Z,65.24
2018-04-10T23:53:55.930Z,65.67
2018-04-10T23:58:57.234Z,65.66
